createdAt,value
2017-05-27T00:01:33.976Z,56.10
2017-05-27T00:04:02.960Z,56.20
2017-05-27T00:06:32.088Z,56.20
2017-05-27T00:09:01.110Z,56.10
2017-05-27T00:11:30.105Z,56.00
2017-05-27T00:13:59.169Z,56.30
2017-05-27T00:16:28.192Z,56.30
2017-05-27T00:18:57.335Z,56.30
2017-05-27T00:21:26.373Z,56.40
2017-05-27T00:23:55.389Z,56.40
2017-05-27T00:26:24.516Z,56.50
2017-05-27T00:28:53.538Z,56.80
2017-05-27T00:31:22.615Z,57.10
2017-05-27T00:33:51.623Z,57.20
2017-05-27T00:36:20.757Z,57.30
2017-05-27T00:38:49.806Z,57.20
2017-05-27T00:41:18.823Z,57.30
2017-05-27T00:43:47.113Z,57.30
2017-05-27T00:46:16.230Z,57.60
2017-05-27T00:48:45.357Z,57.30
2017-05-27T00:51:15.413Z,57.20
2017-05-27T00:53:44.426Z,57.50
2017-05-27T00:56:13.561Z,57.50
2017-05-27T00:58:42.652Z,57.60
2017-05-27T01:01:11.674Z,57.30
2017-05-27T01:03:40.710Z,57.40
2017-05-27T01:06:09.726Z,57.20
2017-05-27T01:08:38.821Z,57.30
2017-05-27T01:11:07.832Z,57.30
2017-05-27T01:13:36.914Z,57.40
2017-05-27T01:16:05.965Z,57.60
2017-05-27T01:18:35.073Z,57.50
2017-05-27T01:21:04.139Z,57.50
2017-05-27T01:23:33.203Z,58.40
2017-05-27T01:26:02.220Z,57.70
2017-05-27T01:28:31.374Z,58.30
2017-05-27T01:31:00.382Z,58.20
2017-05-27T01:33:29.442Z,58.10
2017-05-27T01:35:58.491Z,58.00
2017-05-27T01:38:27.554Z,57.70
2017-05-27T01:40:56.601Z,57.90
2017-05-27T01:43:25.614Z,57.80
2017-05-27T01:45:54.675Z,58.20
2017-05-27T01:48:23.747Z,58.30
2017-05-27T01:50:52.798Z,58.30
2017-05-27T01:53:21.861Z,58.20
2017-05-27T01:55:50.882Z,58.30
2017-05-27T01:58:19.950Z,58.40
2017-05-27T02:00:48.970Z,58.40
2017-05-27T02:03:18.033Z,58.40
2017-05-27T02:05:47.070Z,58.60
2017-05-27T02:08:16.135Z,58.70
2017-05-27T02:10:45.209Z,58.80
2017-05-27T02:13:14.221Z,58.80
2017-05-27T02:15:43.296Z,58.70
2017-05-27T02:18:12.329Z,58.60
2017-05-27T02:20:41.357Z,58.90
2017-05-27T02:23:10.426Z,58.70
2017-05-27T02:25:39.484Z,58.40
2017-05-27T02:28:08.549Z,58.60
2017-05-27T02:30:37.610Z,58.80
2017-05-27T02:33:06.625Z,58.80
2017-05-27T02:35:35.688Z,58.90
2017-05-27T02:38:04.695Z,59.00
2017-05-27T02:40:33.713Z,59.00
2017-05-27T02:43:02.771Z,59.20
2017-05-27T02:45:31.796Z,59.20
2017-05-27T02:48:00.846Z,59.10
2017-05-27T02:50:29.867Z,59.00
2017-05-27T02:52:58.947Z,59.00
2017-05-27T02:55:27.987Z,59.30
2017-05-27T02:57:57.003Z,59.50
2017-05-27T03:00:26.105Z,59.60
2017-05-27T03:02:55.230Z,59.80
2017-05-27T03:05:24.288Z,60.30
2017-05-27T03:07:53.358Z,60.60
2017-05-27T03:10:22.374Z,60.50
2017-05-27T03:12:51.475Z,60.60
2017-05-27T03:15:20.540Z,61.00
2017-05-27T03:17:49.558Z,61.30
2017-05-27T03:20:18.594Z,61.50
2017-05-27T03:22:47.621Z,61.30
2017-05-27T03:25:16.713Z,61.30
2017-05-27T03:27:45.783Z,61.30
2017-05-27T03:30:14.811Z,61.40
2017-05-27T03:32:43.878Z,61.20
2017-05-27T03:35:12.983Z,61.30
2017-05-27T03:37:42.045Z,61.60
2017-05-27T03:40:11.066Z,62.00
2017-05-27T03:42:40.078Z,62.00
2017-05-27T03:45:09.136Z,61.50
2017-05-27T03:47:38.183Z,61.10
2017-05-27T03:50:07.229Z,60.40
2017-05-27T03:52:36.302Z,60.10
2017-05-27T03:55:05.446Z,61.30
2017-05-27T03:57:34.500Z,60.90
2017-05-27T04:00:03.498Z,61.30
2017-05-27T04:02:32.537Z,62.40
2017-05-27T04:05:01.597Z,61.80
2017-05-27T04:07:30.606Z,62.10
2017-05-27T04:09:59.641Z,61.60
2017-05-27T04:12:28.714Z,61.20
2017-05-27T04:14:57.754Z,61.60
2017-05-27T04:17:26.825Z,61.50
2017-05-27T04:19:55.931Z,61.50
2017-05-27T04:22:24.950Z,61.40
2017-05-27T04:24:53.999Z,61.30
2017-05-27T04:27:23.057Z,61.50
2017-05-27T04:29:52.125Z,61.40
2017-05-27T04:32:21.150Z,61.00
2017-05-27T04:34:50.247Z,60.00
2017-05-27T04:37:19.284Z,59.10
2017-05-27T04:39:48.386Z,58.50
2017-05-27T04:42:16.682Z,58.50
2017-05-27T04:44:45.792Z,56.30
2017-05-27T04:47:14.819Z,55.40
2017-05-27T04:49:43.914Z,54.40
2017-05-27T04:52:12.964Z,53.20
2017-05-27T04:54:41.982Z,52.20
2017-05-27T04:57:11.093Z,51.10
2017-05-27T04:59:40.169Z,50.90
2017-05-27T05:02:09.204Z,51.10
2017-05-27T05:04:38.290Z,49.80
2017-05-27T05:07:07.334Z,49.00
2017-05-27T05:09:36.348Z,48.50
2017-05-27T05:12:05.472Z,47.60
2017-05-27T05:14:34.494Z,47.30
2017-05-27T05:17:03.537Z,46.40
2017-05-27T05:19:32.638Z,45.50
2017-05-27T05:22:01.634Z,44.30
2017-05-27T05:24:30.647Z,43.50
2017-05-27T05:26:59.713Z,42.30
2017-05-27T05:29:28.727Z,42.30
2017-05-27T05:31:57.850Z,40.90
2017-05-27T05:34:26.958Z,40.10
2017-05-27T05:36:56.042Z,39.70
2017-05-27T05:39:25.176Z,38.80
2017-05-27T05:41:54.323Z,38.40
2017-05-27T05:44:23.387Z,38.20
2017-05-27T05:46:52.411Z,37.60
2017-05-27T05:49:21.506Z,37.50
2017-05-27T05:51:50.526Z,37.10
2017-05-27T05:54:19.555Z,36.60
2017-05-27T05:56:48.666Z,37.00
2017-05-27T05:59:17.686Z,36.50
2017-05-27T06:01:46.795Z,36.10
2017-05-27T06:04:15.977Z,36.00
2017-05-27T06:06:45.071Z,35.40
2017-05-27T06:09:14.094Z,36.80
2017-05-27T06:11:43.185Z,37.60
2017-05-27T06:14:12.197Z,38.10
2017-05-27T06:16:41.219Z,38.60
2017-05-27T06:19:10.291Z,39.80
2017-05-27T06:21:39.299Z,39.70
2017-05-27T06:24:08.361Z,40.70
2017-05-27T06:26:37.425Z,41.00
2017-05-27T06:29:07.066Z,42.00
2017-05-27T06:31:36.521Z,42.40
2017-05-27T06:34:05.540Z,42.70
2017-05-27T06:36:34.615Z,43.20
2017-05-27T06:39:03.886Z,43.70
2017-05-27T06:41:32.963Z,43.60
2017-05-27T06:44:01.986Z,43.50
2017-05-27T06:46:31.006Z,41.60
2017-05-27T06:49:00.037Z,41.20
2017-05-27T06:51:29.110Z,40.70
2017-05-27T06:53:58.178Z,40.10
2017-05-27T06:56:27.199Z,38.80
2017-05-27T06:58:56.220Z,38.60
2017-05-27T07:01:25.368Z,37.40
2017-05-27T07:03:54.529Z,38.50
2017-05-27T07:06:23.643Z,38.20
2017-05-27T07:08:52.675Z,37.50
2017-05-27T07:11:21.767Z,37.50
2017-05-27T07:13:50.852Z,36.80
2017-05-27T07:16:19.877Z,36.60
2017-05-27T07:18:48.949Z,36.50
2017-05-27T07:21:17.971Z,36.30
2017-05-27T07:23:47.065Z,35.90
2017-05-27T07:26:16.206Z,35.30
2017-05-27T07:28:45.270Z,35.30
2017-05-27T07:31:14.656Z,34.90
2017-05-27T07:33:43.662Z,34.90
2017-05-27T07:36:12.692Z,34.80
2017-05-27T07:39:39.557Z,34.50
2017-05-27T07:42:08.668Z,35.10
2017-05-27T07:44:38.021Z,35.60
2017-05-27T07:47:07.166Z,35.40
2017-05-27T07:49:36.236Z,34.80
2017-05-27T07:52:05.428Z,35.00
2017-05-27T07:54:34.434Z,35.30
2017-05-27T07:57:03.560Z,34.20
2017-05-27T07:59:32.588Z,34.70
2017-05-27T08:02:01.653Z,35.10
2017-05-27T08:04:30.747Z,35.30
2017-05-27T08:06:59.767Z,35.30
2017-05-27T08:09:28.833Z,35.50
2017-05-27T08:11:57.108Z,35.40
2017-05-27T08:14:26.444Z,34.80
2017-05-27T08:16:55.554Z,34.60
2017-05-27T08:19:24.592Z,34.40
2017-05-27T08:21:53.694Z,33.90
2017-05-27T08:24:22.720Z,34.40
2017-05-27T08:26:51.753Z,35.10
2017-05-27T08:29:20.846Z,33.60
2017-05-27T08:31:49.895Z,34.00
2017-05-27T08:34:38.730Z,34.80
2017-05-27T08:37:07.758Z,34.30
2017-05-27T08:39:36.855Z,34.80
2017-05-27T08:42:05.949Z,34.90
2017-05-27T08:44:34.992Z,34.90
2017-05-27T08:47:04.107Z,34.70
2017-05-27T08:49:33.143Z,34.00
2017-05-27T08:52:02.219Z,33.90
2017-05-27T08:54:31.241Z,34.00
2017-05-27T08:57:00.308Z,34.30
2017-05-27T08:59:29.326Z,33.70
2017-05-27T09:01:58.362Z,32.90
2017-05-27T09:04:27.486Z,32.50
2017-05-27T09:06:56.497Z,32.40
2017-05-27T09:09:25.638Z,32.30
2017-05-27T09:11:54.671Z,32.60
2017-05-27T09:14:23.755Z,32.80
2017-05-27T09:16:52.824Z,33.40
2017-05-27T09:19:21.906Z,33.70
2017-05-27T09:21:50.932Z,33.10
2017-05-27T09:24:19.961Z,32.40
2017-05-27T09:26:48.992Z,32.20
2017-05-27T09:29:18.079Z,32.60
2017-05-27T09:31:47.106Z,33.00
2017-05-27T09:34:16.132Z,32.70
2017-05-27T09:36:45.182Z,32.10
2017-05-27T09:39:14.194Z,31.80
2017-05-27T09:41:43.314Z,31.00
2017-05-27T09:44:12.285Z,32.50
2017-05-27T09:46:41.309Z,32.60
2017-05-27T09:49:10.365Z,31.70
2017-05-27T09:51:39.425Z,32.30
2017-05-27T09:54:08.494Z,32.10
2017-05-27T09:56:37.523Z,31.90
2017-05-27T09:59:06.589Z,31.00
2017-05-27T10:01:35.650Z,31.10
2017-05-27T10:04:04.709Z,32.70
2017-05-27T10:06:33.795Z,33.10
2017-05-27T10:09:02.829Z,32.50
2017-05-27T10:11:31.842Z,32.60
2017-05-27T10:14:00.877Z,32.60
2017-05-27T10:16:29.931Z,32.60
2017-05-27T10:18:59.007Z,31.10
2017-05-27T10:21:28.064Z,30.90
2017-05-27T10:23:57.104Z,31.30
2017-05-27T10:26:25.386Z,31.30
2017-05-27T10:28:54.413Z,31.10
2017-05-27T10:31:23.504Z,30.30
2017-05-27T10:33:52.569Z,30.30
2017-05-27T10:36:21.594Z,29.60
2017-05-27T10:38:50.657Z,30.40
2017-05-27T10:41:19.742Z,29.40
2017-05-27T10:43:48.885Z,29.90
2017-05-27T10:46:17.875Z,29.90
2017-05-27T10:48:46.885Z,31.00
2017-05-27T10:51:15.918Z,29.60
2017-05-27T10:53:44.985Z,27.80
2017-05-27T10:56:14.079Z,27.30
2017-05-27T10:58:43.154Z,27.80
2017-05-27T11:01:12.194Z,29.00
2017-05-27T11:03:41.257Z,30.20
2017-05-27T11:06:10.319Z,30.00
2017-05-27T11:08:39.417Z,29.90
2017-05-27T11:11:08.437Z,30.00
2017-05-27T11:13:37.521Z,30.40
2017-05-27T11:16:06.561Z,30.70
2017-05-27T11:18:35.578Z,30.80
2017-05-27T11:21:04.657Z,30.20
2017-05-27T11:23:33.725Z,29.80
2017-05-27T11:26:02.726Z,30.50
2017-05-27T11:28:31.769Z,29.70
2017-05-27T11:31:00.838Z,29.30
2017-05-27T11:33:29.908Z,29.70
2017-05-27T11:35:58.950Z,29.20
2017-05-27T11:38:28.013Z,29.80
2017-05-27T11:40:57.130Z,29.90
2017-05-27T11:43:26.162Z,29.20
2017-05-27T11:45:55.230Z,29.20
2017-05-27T11:48:24.262Z,29.30
2017-05-27T11:50:53.326Z,29.00
2017-05-27T11:53:22.417Z,29.10
2017-05-27T11:55:51.463Z,29.40
2017-05-27T11:58:20.522Z,29.20
2017-05-27T12:00:49.546Z,30.00
2017-05-27T12:03:18.567Z,28.90
2017-05-27T12:05:47.602Z,28.60
2017-05-27T12:08:16.661Z,28.80
2017-05-27T12:10:45.735Z,29.20
2017-05-27T12:13:14.770Z,28.40
2017-05-27T12:15:43.793Z,29.10
2017-05-27T12:18:12.823Z,28.70
2017-05-27T12:20:41.879Z,29.10
2017-05-27T12:23:11.001Z,29.40
2017-05-27T12:25:40.038Z,29.20
2017-05-27T12:28:09.104Z,29.20
2017-05-27T12:30:38.173Z,28.40
2017-05-27T12:33:07.220Z,28.60
2017-05-27T12:35:36.290Z,29.00
2017-05-27T12:38:05.310Z,27.90
2017-05-27T12:40:34.333Z,27.40
2017-05-27T12:43:03.362Z,27.60
2017-05-27T12:45:32.411Z,27.70
2017-05-27T12:48:01.451Z,27.80
2017-05-27T12:50:30.474Z,28.20
2017-05-27T12:52:59.508Z,27.60
2017-05-27T12:55:28.552Z,28.20
2017-05-27T12:57:57.603Z,28.10
2017-05-27T13:00:26.665Z,29.10
2017-05-27T13:02:55.729Z,28.20
2017-05-27T13:05:24.738Z,26.60
2017-05-27T13:07:53.846Z,28.20
2017-05-27T13:10:22.865Z,28.70
2017-05-27T13:12:51.962Z,29.60
2017-05-27T13:15:21.024Z,28.00
2017-05-27T13:17:50.043Z,27.80
2017-05-27T13:20:19.152Z,29.80
2017-05-27T13:22:48.210Z,28.90
2017-05-27T13:25:17.282Z,28.80
2017-05-27T13:27:46.363Z,29.90
2017-05-27T13:30:15.405Z,30.20
2017-05-27T13:32:44.497Z,30.80
2017-05-27T13:35:13.493Z,27.30
2017-05-27T13:37:42.552Z,26.80
2017-05-27T13:40:11.562Z,26.10
2017-05-27T13:42:40.613Z,26.80
2017-05-27T13:45:09.665Z,26.10
2017-05-27T13:47:38.731Z,27.10
2017-05-27T13:50:07.814Z,27.80
2017-05-27T13:52:36.852Z,27.90
2017-05-27T13:55:05.869Z,28.70
2017-05-27T13:57:34.906Z,28.40
2017-05-27T14:00:03.957Z,28.40
2017-05-27T14:02:33.065Z,28.80
2017-05-27T14:05:02.081Z,31.60
2017-05-27T14:07:31.228Z,30.60
2017-05-27T14:10:00.294Z,30.10
2017-05-27T14:12:29.385Z,29.50
2017-05-27T14:14:58.517Z,29.60
2017-05-27T14:17:27.574Z,30.40
2017-05-27T14:19:56.598Z,30.00
2017-05-27T14:22:25.677Z,31.80
2017-05-27T14:24:54.695Z,30.40
2017-05-27T14:27:23.734Z,30.70
2017-05-27T14:29:52.783Z,30.30
2017-05-27T14:32:22.015Z,30.00
2017-05-27T14:34:51.258Z,30.90
2017-05-27T14:37:20.322Z,31.30
2017-05-27T14:39:49.447Z,30.50
2017-05-27T14:42:18.515Z,30.20
2017-05-27T14:44:47.576Z,29.60
2017-05-27T14:47:16.631Z,29.90
2017-05-27T14:49:45.649Z,30.00
2017-05-27T14:52:14.665Z,30.50
2017-05-27T14:54:43.726Z,29.80
2017-05-27T14:57:12.778Z,30.60
2017-05-27T14:59:41.815Z,30.70
2017-05-27T15:02:10.901Z,30.10
2017-05-27T15:04:39.976Z,30.80
2017-05-27T15:07:08.990Z,30.40
2017-05-27T15:09:38.049Z,29.70
2017-05-27T15:12:07.082Z,30.00
2017-05-27T15:14:36.137Z,30.10
2017-05-27T15:17:05.214Z,30.10
2017-05-27T15:19:34.239Z,29.60
2017-05-27T15:22:03.345Z,30.40
2017-05-27T15:24:32.398Z,30.50
2017-05-27T15:27:01.478Z,29.90
2017-05-27T15:29:30.482Z,30.10
2017-05-27T15:31:59.614Z,31.10
2017-05-27T15:34:28.759Z,31.80
2017-05-27T15:36:57.755Z,30.60
2017-05-27T15:39:26.902Z,30.90
2017-05-27T15:41:55.999Z,31.70
2017-05-27T15:44:25.034Z,31.20
2017-05-27T15:46:54.090Z,32.00
2017-05-27T15:49:23.191Z,30.90
2017-05-27T15:51:52.206Z,30.50
2017-05-27T15:54:21.267Z,31.90
2017-05-27T15:56:50.278Z,32.90
2017-05-27T15:59:19.460Z,31.40
2017-05-27T16:01:48.478Z,31.40
2017-05-27T16:04:17.498Z,31.30
2017-05-27T16:06:46.534Z,32.70
2017-05-27T16:09:15.546Z,32.80
2017-05-27T16:11:44.616Z,32.30
2017-05-27T16:14:13.647Z,32.30
2017-05-27T16:16:42.674Z,32.50
2017-05-27T16:19:11.717Z,33.10
2017-05-27T16:21:40.743Z,32.60
2017-05-27T16:24:09.799Z,32.90
2017-05-27T16:26:38.872Z,32.90
2017-05-27T16:29:07.915Z,33.40
2017-05-27T16:31:36.984Z,34.10
2017-05-27T16:34:06.336Z,32.60
2017-05-27T16:36:35.909Z,32.20
2017-05-27T16:39:05.417Z,32.90
2017-05-27T16:41:34.735Z,33.40
2017-05-27T16:44:03.970Z,33.60
2017-05-27T16:46:33.174Z,33.00
2017-05-27T16:49:02.511Z,33.90
2017-05-27T16:51:31.585Z,34.60
2017-05-27T16:54:00.599Z,34.90
2017-05-27T16:56:29.665Z,33.90
2017-05-27T16:58:58.690Z,33.70
2017-05-27T17:01:27.759Z,33.50
2017-05-27T17:03:56.774Z,33.60
2017-05-27T17:06:25.784Z,34.20
2017-05-27T17:08:54.839Z,34.00
2017-05-27T17:11:23.898Z,34.20
2017-05-27T17:13:52.973Z,34.60
2017-05-27T17:16:22.030Z,34.60
2017-05-27T17:18:51.090Z,34.70
2017-05-27T17:21:20.151Z,35.00
2017-05-27T17:23:49.138Z,36.20
2017-05-27T17:26:18.211Z,36.30
2017-05-27T17:28:47.249Z,36.20
2017-05-27T17:31:16.262Z,35.40
2017-05-27T17:33:45.306Z,35.30
2017-05-27T17:36:14.338Z,35.30
2017-05-27T17:38:43.400Z,36.10
2017-05-27T17:41:12.425Z,36.40
2017-05-27T17:43:41.530Z,36.40
2017-05-27T17:46:10.563Z,36.50
2017-05-27T17:48:39.616Z,36.70
2017-05-27T17:51:08.655Z,36.70
2017-05-27T17:53:37.677Z,36.70
2017-05-27T17:56:06.748Z,36.50
2017-05-27T17:58:35.791Z,36.70
2017-05-27T18:01:04.802Z,36.70
2017-05-27T18:03:33.846Z,37.00
2017-05-27T18:06:02.890Z,36.90
2017-05-27T18:08:31.958Z,37.20
2017-05-27T18:11:00.972Z,36.90
2017-05-27T18:13:30.010Z,37.30
2017-05-27T18:15:59.021Z,37.20
2017-05-27T18:18:28.054Z,37.40
2017-05-27T18:20:57.117Z,37.30
2017-05-27T18:23:26.155Z,37.10
2017-05-27T18:25:55.207Z,37.20
2017-05-27T18:28:24.238Z,37.20
2017-05-27T18:30:53.269Z,37.50
2017-05-27T18:33:22.320Z,37.50
2017-05-27T18:35:51.349Z,37.70
2017-05-27T18:38:20.370Z,37.90
2017-05-27T18:40:49.493Z,38.20
2017-05-27T18:43:18.531Z,38.40
2017-05-27T18:45:47.682Z,38.40
2017-05-27T18:48:16.695Z,38.30
2017-05-27T18:50:45.721Z,38.30
2017-05-27T18:53:14.755Z,38.60
2017-05-27T18:55:43.781Z,38.60
2017-05-27T18:58:12.832Z,38.70
2017-05-27T19:00:41.860Z,38.90
2017-05-27T19:03:10.897Z,39.20
2017-05-27T19:05:39.947Z,39.50
2017-05-27T19:08:08.949Z,39.30
2017-05-27T19:10:38.004Z,39.10
2017-05-27T19:13:07.112Z,39.10
2017-05-27T19:15:36.203Z,39.20
2017-05-27T19:18:05.245Z,39.30
2017-05-27T19:20:34.270Z,39.20
2017-05-27T19:23:03.347Z,39.30
2017-05-27T19:25:32.346Z,39.20
2017-05-27T19:28:01.376Z,39.50
2017-05-27T19:30:30.408Z,39.90
2017-05-27T19:32:59.425Z,40.20
2017-05-27T19:35:28.499Z,40.20
2017-05-27T19:37:57.535Z,39.30
2017-05-27T19:40:26.552Z,39.50
2017-05-27T19:42:55.630Z,39.30
2017-05-27T19:45:25.310Z,39.30
2017-05-27T19:47:54.374Z,39.40
2017-05-27T19:50:23.397Z,39.80
2017-05-27T19:52:52.516Z,39.60
2017-05-27T19:55:21.609Z,39.80
2017-05-27T19:57:50.747Z,39.80
2017-05-27T20:00:19.941Z,40.00
2017-05-27T20:02:48.990Z,39.70
2017-05-27T20:05:17.997Z,40.40
2017-05-27T20:07:47.060Z,41.10
2017-05-27T20:10:16.069Z,41.50
2017-05-27T20:12:45.139Z,42.00
2017-05-27T20:15:14.154Z,42.30
2017-05-27T20:17:43.226Z,42.80
2017-05-27T20:20:12.259Z,43.00
2017-05-27T20:22:41.282Z,43.10
2017-05-27T20:25:10.338Z,43.40
2017-05-27T20:27:39.358Z,44.00
2017-05-27T20:30:08.406Z,44.20
2017-05-27T20:32:37.437Z,43.90
2017-05-27T20:35:06.477Z,44.00
2017-05-27T20:37:35.575Z,44.50
2017-05-27T20:40:04.588Z,44.30
2017-05-27T20:42:33.663Z,44.50
2017-05-27T20:45:02.729Z,45.20
2017-05-27T20:47:31.805Z,45.20
2017-05-27T20:50:00.850Z,45.50
2017-05-27T20:52:29.891Z,46.00
2017-05-27T20:54:59.790Z,46.20
2017-05-27T20:57:28.838Z,46.60
2017-05-27T20:59:57.889Z,46.50
2017-05-27T21:02:26.968Z,47.10
2017-05-27T21:04:56.000Z,47.20
2017-05-27T21:07:25.021Z,47.40
2017-05-27T21:09:54.050Z,47.50
2017-05-27T21:12:23.063Z,47.90
2017-05-27T21:14:52.149Z,48.50
2017-05-27T21:17:21.180Z,48.40
2017-05-27T21:19:50.284Z,48.30
2017-05-27T21:22:19.303Z,48.40
2017-05-27T21:24:48.315Z,48.60
2017-05-27T21:27:18.054Z,48.90
2017-05-27T21:29:47.078Z,48.90
2017-05-27T21:32:16.138Z,49.10
2017-05-27T21:34:45.191Z,49.40
2017-05-27T21:37:14.292Z,49.40
2017-05-27T21:39:43.394Z,49.70
2017-05-27T21:42:12.489Z,50.10
2017-05-27T21:44:41.552Z,50.60
2017-05-27T21:47:10.616Z,51.30
2017-05-27T21:49:39.670Z,51.90
2017-05-27T21:52:08.754Z,51.60
2017-05-27T21:54:38.005Z,52.00
2017-05-27T21:57:07.022Z,52.40
2017-05-27T21:59:36.063Z,52.10
2017-05-27T22:02:05.246Z,52.20
2017-05-27T22:04:34.273Z,51.70
2017-05-27T22:07:03.359Z,51.70
2017-05-27T22:09:32.386Z,51.80
2017-05-27T22:12:01.418Z,51.80
2017-05-27T22:14:30.525Z,51.90
2017-05-27T22:16:59.545Z,52.20
2017-05-27T22:19:28.603Z,52.30
2017-05-27T22:21:57.714Z,52.30
2017-05-27T22:24:27.266Z,52.50
2017-05-27T22:26:56.307Z,53.20
2017-05-27T22:29:25.344Z,52.60
2017-05-27T22:31:54.683Z,53.00
2017-05-27T22:34:23.747Z,52.80
2017-05-27T22:36:52.830Z,52.90
2017-05-27T22:39:21.919Z,53.20
2017-05-27T22:41:50.886Z,53.10
2017-05-27T22:44:19.922Z,53.00
2017-05-27T22:46:48.938Z,53.30
2017-05-27T22:49:17.978Z,53.40
2017-05-27T22:51:46.997Z,53.90
2017-05-27T22:54:16.066Z,53.50
2017-05-27T22:56:45.216Z,53.90
2017-05-27T22:59:14.233Z,53.50
2017-05-27T23:01:43.269Z,53.60
2017-05-27T23:04:12.400Z,53.80
2017-05-27T23:06:41.491Z,53.80
2017-05-27T23:09:10.594Z,53.90
2017-05-27T23:11:39.670Z,54.20
2017-05-27T23:14:08.872Z,54.40
2017-05-27T23:16:37.896Z,54.30
2017-05-27T23:19:06.922Z,54.00
2017-05-27T23:21:35.938Z,54.30
2017-05-27T23:24:05.051Z,54.50
2017-05-27T23:26:34.146Z,54.40
2017-05-27T23:29:03.222Z,54.40
2017-05-27T23:31:32.335Z,54.10
2017-05-27T23:34:01.358Z,53.90
2017-05-27T23:36:30.397Z,54.40
2017-05-27T23:38:59.413Z,54.50
2017-05-27T23:41:28.511Z,54.60
2017-05-27T23:43:57.532Z,54.80
2017-05-27T23:46:26.591Z,55.80
2017-05-27T23:48:55.610Z,55.10
2017-05-27T23:51:24.739Z,55.50
2017-05-27T23:53:53.774Z,55.80
2017-05-27T23:56:22.878Z,55.50
2017-05-27T23:58:51.975Z,55.40
